createdAt,value
2024-05-09T00:00:45.694Z,102733.86
2024-05-09T00:03:33.713Z,102732.65
2024-05-09T00:06:01.993Z,102726.34
2024-05-09T00:08:30.084Z,102731.35
2024-05-09T00:10:58.164Z,102733.80
2024-05-09T00:13:26.262Z,102735.30
2024-05-09T00:15:54.086Z,102733.55
2024-05-09T00:18:22.030Z,102736.97
2024-05-09T00:20:50.224Z,102734.98
2024-05-09T00:23:18.198Z,102735.82
2024-05-09T00:25:46.184Z,102735.21
2024-05-09T00:28:14.207Z,102733.67
2024-05-09T00:30:42.241Z,102736.84
2024-05-09T00:33:11.428Z,102737.69
2024-05-09T00:35:41.668Z,102736.40
2024-05-09T00:38:10.427Z,102734.10
2024-05-09T00:40:43.236Z,102733.56
2024-05-09T00:43:13.913Z,102738.16
2024-05-09T00:45:44.054Z,102737.23
2024-05-09T00:48:16.426Z,102737.84
2024-05-09T00:50:48.207Z,102738.26
2024-05-09T00:53:18.536Z,102735.60
2024-05-09T00:55:47.639Z,102739.75
2024-05-09T00:58:18.615Z,102739.58
2024-05-09T01:00:47.270Z,102739.57
2024-05-09T01:03:15.503Z,102738.55
2024-05-09T01:05:44.432Z,102741.67
2024-05-09T01:08:13.084Z,102740.48
2024-05-09T01:10:44.156Z,102737.86
2024-05-09T01:13:13.860Z,102738.69
2024-05-09T01:15:42.333Z,102735.34
2024-05-09T01:18:12.389Z,102735.36
2024-05-09T01:20:44.315Z,102735.15
2024-05-09T01:23:15.424Z,102735.80
2024-05-09T01:25:46.338Z,102737.69
2024-05-09T01:28:16.478Z,102742.87
2024-05-09T01:30:44.556Z,102740.52
2024-05-09T01:33:13.203Z,102743.23
2024-05-09T01:35:42.755Z,102745.84
2024-05-09T01:38:17.032Z,102744.98
2024-05-09T01:40:45.426Z,102747.40
2024-05-09T01:43:13.849Z,102745.37
2024-05-09T01:45:42.263Z,102745.09
2024-05-09T01:48:11.116Z,102742.11
2024-05-09T01:50:42.205Z,102740.48
2024-05-09T01:53:13.358Z,102742.13
2024-05-09T01:55:42.085Z,102740.65
2024-05-09T01:58:10.204Z,102736.92
2024-05-09T02:00:42.192Z,102739.14
2024-05-09T02:03:16.544Z,102734.58
2024-05-09T02:05:50.043Z,102734.69
2024-05-09T02:08:20.216Z,102734.36
2024-05-09T02:10:49.852Z,102735.05
2024-05-09T02:13:18.543Z,102735.33
2024-05-09T02:15:46.818Z,102740.64
2024-05-09T02:18:14.879Z,102743.45
2024-05-09T02:20:43.554Z,102745.15
2024-05-09T02:23:13.890Z,102747.05
2024-05-09T02:25:42.292Z,102744.80
2024-05-09T02:28:10.238Z,102747.55
2024-05-09T02:30:41.090Z,102742.77
2024-05-09T02:33:12.387Z,102746.61
2024-05-09T02:35:43.470Z,102752.81
2024-05-09T02:38:12.507Z,102755.01
2024-05-09T02:40:41.163Z,102757.56
2024-05-09T02:43:12.656Z,102753.42
2024-05-09T02:45:41.503Z,102750.39
2024-05-09T02:48:13.713Z,102746.84
2024-05-09T02:50:44.408Z,102744.89
2024-05-09T02:53:14.198Z,102743.43
2024-05-09T02:55:43.170Z,102744.09
2024-05-09T02:58:11.968Z,102745.42
2024-05-09T03:00:42.026Z,102747.10
2024-05-09T03:03:13.499Z,102741.98
2024-05-09T03:05:45.124Z,102735.67
2024-05-09T03:08:13.520Z,102733.11
2024-05-09T03:10:41.736Z,102732.62
2024-05-09T03:13:12.968Z,102733.37
2024-05-09T03:15:42.609Z,102731.21
2024-05-09T03:18:11.497Z,102727.00
2024-05-09T03:20:40.301Z,102731.48
2024-05-09T03:23:09.618Z,102738.86
2024-05-09T03:25:38.935Z,102741.57
2024-05-09T03:28:07.461Z,102743.77
2024-05-09T03:30:40.896Z,102740.98
2024-05-09T03:33:19.224Z,102739.15
2024-05-09T03:35:49.174Z,102739.98
2024-05-09T03:38:17.905Z,102744.71
2024-05-09T03:40:50.592Z,102746.35
2024-05-09T03:43:19.887Z,102742.90
2024-05-09T03:45:49.915Z,102734.83
2024-05-09T03:48:18.118Z,102731.00
2024-05-09T03:50:46.929Z,102730.41
2024-05-09T03:53:15.389Z,102728.94
2024-05-09T03:55:43.260Z,102728.83
2024-05-09T03:58:12.726Z,102734.08
2024-05-09T04:00:42.295Z,102737.73
2024-05-09T04:03:12.206Z,102735.67
2024-05-09T04:05:42.937Z,102732.14
2024-05-09T04:08:15.503Z,102726.81
2024-05-09T04:10:43.958Z,102729.59
2024-05-09T04:13:12.112Z,102736.34
2024-05-09T04:15:40.021Z,102736.52
2024-05-09T04:18:08.107Z,102738.10
2024-05-09T04:20:39.619Z,102739.28
2024-05-09T04:23:14.425Z,102740.16
2024-05-09T04:25:45.058Z,102735.97
2024-05-09T04:28:14.014Z,102733.09
2024-05-09T04:30:42.891Z,102728.86
2024-05-09T04:33:13.435Z,102725.40
2024-05-09T04:35:43.489Z,102718.83
2024-05-09T04:38:13.487Z,102714.29
2024-05-09T04:40:41.731Z,102713.36
2024-05-09T04:43:18.758Z,102709.90
2024-05-09T04:45:47.684Z,102712.55
2024-05-09T04:48:16.678Z,102705.08
2024-05-09T04:50:44.995Z,102705.05
2024-05-09T04:53:18.447Z,102708.65
2024-05-09T04:55:46.589Z,102706.82
2024-05-09T04:58:14.700Z,102702.64
2024-05-09T05:00:43.727Z,102703.85
2024-05-09T05:03:14.565Z,102706.16
2024-05-09T05:05:46.252Z,102708.16
2024-05-09T05:08:16.446Z,102704.81
2024-05-09T05:10:46.253Z,102706.52
2024-05-09T05:13:20.553Z,102703.39
2024-05-09T05:15:51.489Z,102702.27
2024-05-09T05:18:19.941Z,102706.88
2024-05-09T05:20:48.831Z,102710.05
2024-05-09T05:23:19.983Z,102708.64
2024-05-09T05:25:49.690Z,102707.23
2024-05-09T05:28:18.668Z,102702.25
2024-05-09T05:30:46.833Z,102703.75
2024-05-09T05:33:17.913Z,102704.23
2024-05-09T05:35:46.089Z,102702.66
2024-05-09T05:38:14.158Z,102696.98
2024-05-09T05:40:42.310Z,102690.84
2024-05-09T05:43:16.907Z,102690.40
2024-05-09T05:45:45.803Z,102683.50
2024-05-09T05:48:17.850Z,102678.08
2024-05-09T05:50:46.498Z,102678.85
2024-05-09T05:53:14.785Z,102676.73
2024-05-09T05:55:42.871Z,102679.05
2024-05-09T05:58:12.255Z,102680.02
2024-05-09T06:00:42.070Z,102679.27
2024-05-09T06:03:12.661Z,102675.50
2024-05-09T06:05:45.828Z,102675.58
2024-05-09T06:08:14.096Z,102676.38
2024-05-09T06:10:42.623Z,102680.14
2024-05-09T06:13:11.765Z,102680.85
2024-05-09T06:15:40.638Z,102677.23
2024-05-09T06:18:10.572Z,102674.67
2024-05-09T06:20:41.923Z,102669.70
2024-05-09T06:23:11.396Z,102672.58
2024-05-09T06:25:39.454Z,102675.37
2024-05-09T06:28:07.419Z,102673.27
2024-05-09T06:30:42.220Z,102672.52
2024-05-09T06:33:13.947Z,102672.27
2024-05-09T06:35:44.619Z,102672.66
2024-05-09T06:38:13.250Z,102667.05
2024-05-09T06:40:43.667Z,102664.23
2024-05-09T06:43:18.373Z,102667.08
2024-05-09T06:45:49.176Z,102663.05
2024-05-09T06:48:19.731Z,102657.42
2024-05-09T06:50:48.516Z,102659.16
2024-05-09T06:53:17.472Z,102658.80
2024-05-09T06:55:45.689Z,102659.52
2024-05-09T06:58:13.731Z,102655.31
2024-05-09T07:00:42.400Z,102655.14
2024-05-09T07:03:16.746Z,102653.73
2024-05-09T07:05:48.203Z,102649.48
2024-05-09T07:08:18.085Z,102648.72
2024-05-09T07:10:46.569Z,102651.17
2024-05-09T07:13:15.630Z,102651.16
2024-05-09T07:15:43.903Z,102652.23
2024-05-09T07:18:13.943Z,102648.00
2024-05-09T07:20:42.809Z,102644.32
2024-05-09T07:23:11.943Z,102644.52
2024-05-09T07:25:40.820Z,102642.79
2024-05-09T07:28:18.020Z,102639.12
2024-05-09T07:30:46.236Z,102637.16
2024-05-09T07:33:23.017Z,102633.06
2024-05-09T07:35:52.470Z,102634.64
2024-05-09T07:38:20.853Z,102637.11
2024-05-09T07:40:49.429Z,102632.35
2024-05-09T07:43:17.394Z,102633.42
2024-05-09T07:45:52.413Z,102633.25
2024-05-09T07:52:38.775Z,102627.67
2024-05-09T07:53:47.598Z,102627.69
2024-05-09T07:56:21.644Z,102621.70
2024-05-09T07:58:52.456Z,102617.83
2024-05-09T08:01:21.157Z,102619.05
2024-05-09T08:03:50.832Z,102619.92
2024-05-09T08:06:19.197Z,102612.86
2024-05-09T08:08:47.771Z,102607.02
2024-05-09T08:11:15.911Z,102606.84
2024-05-09T08:13:44.155Z,102604.00
2024-05-09T08:16:13.999Z,102603.30
2024-05-09T08:18:42.730Z,102600.11
2024-05-09T08:21:11.010Z,102598.33
2024-05-09T08:23:38.848Z,102599.16
2024-05-09T08:26:06.720Z,102600.74
2024-05-09T08:28:34.584Z,102602.83
2024-05-09T08:31:06.048Z,102604.38
2024-05-09T08:33:35.244Z,102602.20
2024-05-09T08:36:03.525Z,102603.55
2024-05-09T08:38:31.314Z,102599.58
2024-05-09T08:41:02.012Z,102598.14
2024-05-09T08:43:30.758Z,102598.53
2024-05-09T08:45:59.523Z,102598.38
2024-05-09T08:48:27.666Z,102594.52
2024-05-09T08:50:59.334Z,102596.09
2024-05-09T08:53:27.587Z,102590.70
2024-05-09T08:56:00.174Z,102591.45
2024-05-09T08:58:33.655Z,102593.29
2024-05-09T09:01:03.876Z,102595.39
2024-05-09T09:03:34.240Z,102595.05
2024-05-09T09:06:06.630Z,102590.63
2024-05-09T09:08:34.907Z,102587.25
2024-05-09T09:11:03.322Z,102591.45
2024-05-09T09:13:31.207Z,102589.39
2024-05-09T09:16:00.187Z,102587.85
2024-05-09T09:18:30.333Z,102585.08
2024-05-09T09:20:58.679Z,102580.37
2024-05-09T09:23:30.347Z,102576.86
2024-05-09T09:26:00.185Z,102575.85
2024-05-09T09:28:29.558Z,102580.46
2024-05-09T09:31:04.511Z,102580.89
2024-05-09T09:33:35.607Z,102574.54
2024-05-09T09:36:05.853Z,102568.77
2024-05-09T09:38:37.596Z,102565.36
2024-05-09T09:41:07.945Z,102568.11
2024-05-09T09:43:37.479Z,102565.84
2024-05-09T09:46:08.640Z,102565.05
2024-05-09T09:48:40.042Z,102565.54
2024-05-09T09:51:09.167Z,102563.21
2024-05-09T09:53:38.619Z,102561.02
2024-05-09T09:56:10.196Z,102564.91
2024-05-09T09:58:40.481Z,102564.15
2024-05-09T10:01:08.692Z,102563.50
2024-05-09T10:03:37.034Z,102563.55
2024-05-09T10:06:07.697Z,102560.65
2024-05-09T10:08:36.560Z,102559.22
2024-05-09T10:11:04.856Z,102552.84
2024-05-09T10:13:35.074Z,102559.75
2024-05-09T10:16:10.811Z,102557.79
2024-05-09T10:18:40.326Z,102555.98
2024-05-09T10:21:18.470Z,102548.55
2024-05-09T10:23:59.847Z,102544.55
2024-05-09T10:26:35.817Z,102542.68
2024-05-09T10:29:17.666Z,102543.57
2024-05-09T10:31:47.650Z,102542.61
2024-05-09T10:34:24.115Z,102544.30
2024-05-09T10:36:55.808Z,102539.41
2024-05-09T10:39:25.662Z,102534.14
2024-05-09T10:41:53.715Z,102533.94
2024-05-09T10:44:21.823Z,102527.20
2024-05-09T10:46:50.748Z,102525.86
2024-05-09T10:49:18.854Z,102530.67
2024-05-09T10:51:48.906Z,102526.36
2024-05-09T10:54:16.919Z,102528.62
2024-05-09T10:56:44.858Z,102524.96
2024-05-09T10:59:13.085Z,102519.95
2024-05-09T11:01:41.317Z,102524.30
2024-05-09T11:04:09.492Z,102518.43
2024-05-09T11:06:38.494Z,102516.21
2024-05-09T11:09:06.887Z,102513.42
2024-05-09T11:11:35.083Z,102509.32
2024-05-09T11:14:14.671Z,102500.84
2024-05-09T11:16:42.951Z,102495.89
2024-05-09T11:19:14.723Z,102495.48
2024-05-09T11:21:43.206Z,102496.71
2024-05-09T11:24:12.128Z,102492.84
2024-05-09T11:26:40.089Z,102489.84
2024-05-09T11:29:08.029Z,102489.29
2024-05-09T11:31:46.508Z,102489.91
2024-05-09T11:34:17.596Z,102488.41
2024-05-09T11:36:45.731Z,102481.15
2024-05-09T11:39:14.973Z,102479.06
2024-05-09T11:41:43.024Z,102475.16
2024-05-09T11:44:11.193Z,102472.11
2024-05-09T11:46:39.349Z,102467.63
2024-05-09T11:49:09.604Z,102464.41
2024-05-09T11:51:37.829Z,102462.23
2024-05-09T11:54:05.680Z,102463.08
2024-05-09T11:56:33.685Z,102462.11
2024-05-09T11:59:01.754Z,102464.05
2024-05-09T12:01:29.836Z,102454.57
2024-05-09T12:03:58.462Z,102454.22
2024-05-09T12:06:26.993Z,102453.44
2024-05-09T12:08:55.911Z,102457.52
2024-05-09T12:11:24.050Z,102456.45
2024-05-09T12:13:52.025Z,102454.72
2024-05-09T12:16:20.229Z,102452.12
2024-05-09T12:18:48.507Z,102446.20
2024-05-09T12:21:17.526Z,102448.90
2024-05-09T12:23:45.540Z,102440.77
2024-05-09T12:26:15.626Z,102437.67
2024-05-09T12:28:44.002Z,102435.95
2024-05-09T12:31:12.000Z,102437.59
2024-05-09T12:33:39.952Z,102440.77
2024-05-09T12:36:07.938Z,102435.80
2024-05-09T12:38:35.928Z,102433.12
2024-05-09T12:41:04.509Z,102426.23
2024-05-09T12:43:32.503Z,102426.63
2024-05-09T12:46:01.144Z,102423.95
2024-05-09T12:48:29.955Z,102415.84
2024-05-09T12:50:58.044Z,102415.48
2024-05-09T12:53:26.073Z,102412.50
2024-05-09T12:55:59.726Z,102413.23
2024-05-09T12:58:29.993Z,102407.35
2024-05-09T13:00:58.157Z,102403.36
2024-05-09T13:03:26.306Z,102401.24
2024-05-09T13:05:54.778Z,102395.38
2024-05-09T13:08:22.816Z,102395.66
2024-05-09T13:10:51.295Z,102394.08
2024-05-09T13:13:19.619Z,102397.20
2024-05-09T13:15:47.960Z,102394.16
2024-05-09T13:18:16.023Z,102390.12
2024-05-09T13:20:44.682Z,102383.09
2024-05-09T13:23:12.568Z,102386.68
2024-05-09T13:25:40.508Z,102384.39
2024-05-09T13:28:08.658Z,102382.94
2024-05-09T13:30:40.813Z,102376.52
2024-05-09T13:33:12.412Z,102375.54
2024-05-09T13:35:47.665Z,102372.64
2024-05-09T13:38:20.157Z,102368.23
2024-05-09T13:40:49.211Z,102362.58
2024-05-09T13:43:18.239Z,102359.71
2024-05-09T13:45:46.907Z,102358.20
2024-05-09T13:48:15.261Z,102356.31
2024-05-09T13:50:43.457Z,102351.31
2024-05-09T13:53:11.850Z,102351.98
2024-05-09T13:55:40.512Z,102349.64
2024-05-09T13:58:09.605Z,102348.03
2024-05-09T14:00:46.057Z,102344.81
2024-05-09T14:03:19.651Z,102341.02
2024-05-09T14:05:51.104Z,102338.31
2024-05-09T14:08:22.113Z,102333.66
2024-05-09T14:10:51.902Z,102330.23
2024-05-09T14:13:20.203Z,102324.17
2024-05-09T14:15:48.539Z,102324.11
2024-05-09T14:18:16.822Z,102317.89
2024-05-09T14:20:44.863Z,102318.58
2024-05-09T14:23:12.843Z,102311.35
2024-05-09T14:25:42.824Z,102308.50
2024-05-09T14:28:13.182Z,102308.96
2024-05-09T14:30:42.773Z,102299.71
2024-05-09T14:33:11.406Z,102294.20
2024-05-09T14:35:39.703Z,102297.77
2024-05-09T14:38:08.805Z,102290.67
2024-05-09T14:40:42.199Z,102284.29
2024-05-09T14:43:13.810Z,102285.35
2024-05-09T14:45:43.161Z,102281.79
2024-05-09T14:48:14.797Z,102280.15
2024-05-09T14:50:43.195Z,102275.35
2024-05-09T14:53:12.909Z,102273.98
2024-05-09T14:55:43.054Z,102265.77
2024-05-09T14:58:12.997Z,102261.02
2024-05-09T15:00:46.361Z,102258.69
2024-05-09T15:03:22.408Z,102257.77
2024-05-09T15:05:51.504Z,102250.63
2024-05-09T15:08:20.182Z,102258.63
2024-05-09T15:10:50.062Z,102258.98
2024-05-09T15:13:19.536Z,102255.86
2024-05-09T15:15:48.219Z,102256.87
2024-05-09T15:18:16.671Z,102251.34
2024-05-09T15:20:45.609Z,102250.77
2024-05-09T15:23:13.936Z,102246.69
2024-05-09T15:25:41.973Z,102238.14
2024-05-09T15:28:10.344Z,102232.28
2024-05-09T15:30:39.097Z,102234.55
2024-05-09T15:33:08.300Z,102229.38
2024-05-09T15:35:41.057Z,102227.02
2024-05-09T15:38:09.767Z,102222.05
2024-05-09T15:40:40.347Z,102218.63
2024-05-09T15:43:11.114Z,102214.91
2024-05-09T15:45:40.995Z,102213.33
2024-05-09T15:48:10.562Z,102211.00
2024-05-09T15:50:41.418Z,102209.23
2024-05-09T15:53:12.551Z,102211.73
2024-05-09T15:55:42.258Z,102207.84
2024-05-09T15:58:10.798Z,102205.85
2024-05-09T16:00:42.209Z,102210.44
2024-05-09T16:03:13.858Z,102204.52
2024-05-09T16:05:45.698Z,102202.84
2024-05-09T16:08:14.889Z,102199.22
2024-05-09T16:10:45.844Z,102197.59
2024-05-09T16:13:15.938Z,102196.11
2024-05-09T16:15:44.397Z,102191.05
2024-05-09T16:18:12.642Z,102187.03
2024-05-09T16:20:42.605Z,102185.32
2024-05-09T16:23:12.753Z,102184.52
2024-05-09T16:25:46.185Z,102180.85
2024-05-09T16:28:14.520Z,102180.27
2024-05-09T16:30:42.518Z,102177.89
2024-05-09T16:33:13.510Z,102174.79
2024-05-09T16:35:41.486Z,102169.39
2024-05-09T16:38:09.506Z,102173.05
2024-05-09T16:40:40.367Z,102172.23
2024-05-09T16:43:11.904Z,102171.27
2024-05-09T16:45:41.424Z,102170.48
2024-05-09T16:48:09.612Z,102172.67
2024-05-09T16:50:38.359Z,102174.63
2024-05-09T16:53:06.984Z,102170.14
2024-05-09T16:55:36.117Z,102170.58
2024-05-09T16:58:06.622Z,102173.35
2024-05-09T17:00:40.945Z,102173.18
2024-05-09T17:03:15.695Z,102177.17
2024-05-09T17:05:48.442Z,102181.54
2024-05-09T17:08:20.117Z,102176.36
2024-05-09T17:10:49.359Z,102175.91
2024-05-09T17:13:19.035Z,102173.89
2024-05-09T17:15:47.903Z,102178.26
2024-05-09T17:18:16.479Z,102179.42
2024-05-09T17:20:44.496Z,102173.69
2024-05-09T17:23:13.688Z,102180.14
2024-05-09T17:25:42.687Z,102179.77
2024-05-09T17:28:11.210Z,102181.30
2024-05-09T17:30:41.742Z,102177.02
2024-05-09T17:33:11.993Z,102180.32
2024-05-09T17:35:41.499Z,102174.29
2024-05-09T17:38:09.497Z,102175.13
2024-05-09T17:40:38.857Z,102168.74
2024-05-09T17:43:09.645Z,102168.33
2024-05-09T17:45:40.846Z,102168.59
2024-05-09T17:48:11.397Z,102167.62
2024-05-09T17:50:41.256Z,102164.51
2024-05-09T17:53:10.823Z,102159.66
2024-05-09T17:55:40.205Z,102156.92
2024-05-09T17:58:09.812Z,102157.86
2024-05-09T18:00:41.192Z,102159.51
2024-05-09T18:03:12.114Z,102159.23
2024-05-09T18:05:43.192Z,102158.77
2024-05-09T18:08:12.498Z,102154.63
2024-05-09T18:10:41.884Z,102156.64
2024-05-09T18:13:11.615Z,102158.79
2024-05-09T18:15:40.398Z,102162.18
2024-05-09T18:18:09.475Z,102161.73
2024-05-09T18:20:43.645Z,102160.73
2024-05-09T18:23:16.408Z,102164.31
2024-05-09T18:25:46.708Z,102165.05
2024-05-09T18:28:16.130Z,102166.09
2024-05-09T18:30:44.556Z,102167.84
2024-05-09T18:33:12.863Z,102165.73
2024-05-09T18:35:43.684Z,102168.58
2024-05-09T18:38:11.739Z,102174.21
2024-05-09T18:40:41.701Z,102171.95
2024-05-09T18:43:11.683Z,102177.23
2024-05-09T18:45:40.212Z,102180.60
2024-05-09T18:48:09.828Z,102177.44
2024-05-09T18:50:40.470Z,102178.52
2024-05-09T18:53:11.911Z,102179.40
2024-05-09T18:55:42.096Z,102187.16
2024-05-09T18:58:10.280Z,102192.80
2024-05-09T19:00:41.272Z,102193.69
2024-05-09T19:03:13.773Z,102195.29
2024-05-09T19:05:44.684Z,102195.67
2024-05-09T19:08:15.393Z,102188.67
2024-05-09T19:10:45.648Z,102187.10
2024-05-09T19:13:14.698Z,102191.33
2024-05-09T19:15:43.817Z,102196.43
2024-05-09T19:18:13.694Z,102198.38
2024-05-09T19:20:42.810Z,102200.66
2024-05-09T19:23:11.820Z,102202.24
2024-05-09T19:25:40.205Z,102202.95
2024-05-09T19:28:08.339Z,102202.61
2024-05-09T19:30:40.858Z,102200.68
2024-05-09T19:33:14.836Z,102200.69
2024-05-09T19:35:43.818Z,102199.99
2024-05-09T19:38:12.495Z,102202.64
2024-05-09T19:40:40.788Z,102202.46
2024-05-09T19:43:09.120Z,102200.71
2024-05-09T19:45:37.311Z,102203.36
2024-05-09T19:48:06.810Z,102207.06
2024-05-09T19:50:41.632Z,102209.70
2024-05-09T19:53:14.172Z,102206.73
2024-05-09T19:55:42.801Z,102205.14
2024-05-09T19:58:11.540Z,102204.63
2024-05-09T20:00:42.839Z,102203.05
2024-05-09T20:03:14.099Z,102199.19
2024-05-09T20:05:45.528Z,102202.70
2024-05-09T20:08:14.456Z,102198.50
2024-05-09T20:10:42.812Z,102196.58
2024-05-09T20:13:10.998Z,102200.43
2024-05-09T20:15:40.024Z,102197.27
2024-05-09T20:18:08.509Z,102196.23
2024-05-09T20:20:40.455Z,102199.89
2024-05-09T20:23:11.862Z,102201.81
2024-05-09T20:25:40.295Z,102200.59
2024-05-09T20:28:08.516Z,102203.76
2024-05-09T20:30:36.816Z,102203.23
2024-05-09T20:33:09.614Z,102201.48
2024-05-09T20:35:38.394Z,102200.42
2024-05-09T20:38:06.359Z,102197.27
2024-05-09T20:40:37.692Z,102199.90
2024-05-09T20:43:09.681Z,102198.85
2024-05-09T20:45:38.664Z,102197.10
2024-05-09T20:48:08.242Z,102193.94
2024-05-09T20:50:40.593Z,102199.20
2024-05-09T20:53:12.146Z,102198.50
2024-05-09T20:55:41.081Z,102193.58
2024-05-09T20:58:09.848Z,102194.29
2024-05-09T21:00:42.218Z,102194.64
2024-05-09T21:03:14.447Z,102194.64
2024-05-09T21:05:43.871Z,102192.17
2024-05-09T21:08:11.870Z,102191.48
2024-05-09T21:10:39.715Z,102194.64
2024-05-09T21:13:08.199Z,102194.45
2024-05-09T21:15:36.574Z,102191.65
2024-05-09T21:18:05.270Z,102189.19
2024-05-09T21:20:34.952Z,102190.23
2024-05-09T21:23:03.718Z,102188.13
2024-05-09T21:25:32.449Z,102190.59
2024-05-09T21:28:01.013Z,102189.70
2024-05-09T21:30:38.544Z,102195.14
2024-05-09T21:33:13.275Z,102191.10
2024-05-09T21:35:43.700Z,102192.85
2024-05-09T21:38:15.993Z,102186.89
2024-05-09T21:40:44.773Z,102189.16
2024-05-09T21:43:13.350Z,102188.98
2024-05-09T21:45:41.448Z,102186.52
2024-05-09T21:48:09.482Z,102184.41
2024-05-09T21:50:41.043Z,102182.48
2024-05-09T21:53:11.746Z,102178.27
2024-05-09T21:55:40.148Z,102177.20
2024-05-09T21:58:08.170Z,102175.98
2024-05-09T22:00:39.485Z,102180.70
2024-05-09T22:03:09.244Z,102175.27
2024-05-09T22:05:42.052Z,102174.73
2024-05-09T22:08:10.978Z,102176.12
2024-05-09T22:10:39.101Z,102175.24
2024-05-09T22:13:08.409Z,102170.67
2024-05-09T22:15:39.174Z,102168.04
2024-05-09T22:18:10.367Z,102165.94
2024-05-09T22:20:46.601Z,102162.23
2024-05-09T22:23:15.803Z,102163.11
2024-05-09T22:25:44.291Z,102161.14
2024-05-09T22:28:15.097Z,102158.33
2024-05-09T22:30:45.754Z,102157.80
2024-05-09T22:33:14.992Z,102157.79
2024-05-09T22:35:42.992Z,102156.55
2024-05-09T22:38:11.122Z,102150.41
2024-05-09T22:40:46.886Z,102146.73
2024-05-09T22:43:23.057Z,102146.53
2024-05-09T22:45:55.035Z,102146.53
2024-05-09T22:48:24.794Z,102144.77
2024-05-09T22:50:53.908Z,102145.98
2024-05-09T22:53:26.163Z,102147.39
2024-05-09T22:55:54.460Z,102140.02
2024-05-09T22:58:23.298Z,102137.58
2024-05-09T23:00:51.572Z,102139.33
2024-05-09T23:03:21.785Z,102139.15
2024-05-09T23:05:50.626Z,102135.98
2024-05-09T23:08:18.606Z,102137.56
2024-05-09T23:10:46.683Z,102136.34
2024-05-09T23:13:14.716Z,102133.36
2024-05-09T23:15:42.630Z,102133.17
2024-05-09T23:18:11.329Z,102132.13
2024-05-09T23:20:40.282Z,102134.23
2024-05-09T23:23:10.761Z,102129.67
2024-05-09T23:25:43.884Z,102130.02
2024-05-09T23:28:12.595Z,102123.52
2024-05-09T23:30:41.849Z,102123.70
2024-05-09T23:33:14.796Z,102122.81
2024-05-09T23:35:44.391Z,102114.23
2024-05-09T23:38:13.212Z,102114.75
2024-05-09T23:40:42.516Z,102116.51
2024-05-09T23:43:12.420Z,102120.89
2024-05-09T23:45:42.151Z,102116.34
2024-05-09T23:48:10.867Z,102109.67
2024-05-09T23:50:40.312Z,102105.48
2024-05-09T23:53:10.074Z,102106.17
2024-05-09T23:55:39.360Z,102102.48
2024-05-09T23:58:08.588Z,102095.48
